createdAt,value
2018-06-13T00:01:06.811Z,16.02
2018-06-13T00:03:46.113Z,15.87
2018-06-13T00:09:22.276Z,15.49
2018-06-13T00:12:18.007Z,15.35
2018-06-13T00:15:07.084Z,15.30
2018-06-13T00:17:43.958Z,15.20
2018-06-13T00:20:30.932Z,15.16
2018-06-13T00:23:06.067Z,15.07
2018-06-13T00:25:40.115Z,15.01
2018-06-13T00:28:21.543Z,14.97
2018-06-13T00:30:51.511Z,14.97
2018-06-13T00:33:30.849Z,14.95
2018-06-13T00:36:10.637Z,14.90
2018-06-13T00:38:39.099Z,14.85
2018-06-13T00:41:06.850Z,14.79
2018-06-13T00:43:35.782Z,14.79
2018-06-13T00:46:04.107Z,14.79
2018-06-13T00:48:32.435Z,14.76
2018-06-13T00:51:00.179Z,14.74
2018-06-13T00:53:28.560Z,14.73
2018-06-13T00:56:06.385Z,14.71
2018-06-13T00:58:34.732Z,14.68
2018-06-13T01:01:03.067Z,14.70
2018-06-13T01:03:31.389Z,14.66
2018-06-13T01:05:59.137Z,14.70
2018-06-13T01:08:28.044Z,14.70
2018-06-13T01:10:56.369Z,14.71
2018-06-13T01:13:24.129Z,14.71
2018-06-13T01:15:53.044Z,14.77
2018-06-13T01:18:20.793Z,14.78
2018-06-13T01:20:49.712Z,14.77
2018-06-13T01:23:17.982Z,14.73
2018-06-13T01:25:46.355Z,14.75
2018-06-13T01:28:14.665Z,14.78
2018-06-13T01:30:42.990Z,14.78
2018-06-13T01:33:10.744Z,14.77
2018-06-13T01:35:39.640Z,14.75
2018-06-13T01:38:07.386Z,14.75
2018-06-13T01:40:35.709Z,14.76
2018-06-13T01:43:04.610Z,14.80
2018-06-13T01:45:32.932Z,14.83
2018-06-13T01:48:00.672Z,14.83
2018-06-13T01:50:29.560Z,14.86
2018-06-13T01:52:57.884Z,14.90
2018-06-13T01:55:26.259Z,14.91
2018-06-13T01:57:54.587Z,14.93
2018-06-13T02:00:22.909Z,15.03
2018-06-13T02:02:51.225Z,15.17
2018-06-13T02:05:19.545Z,15.27
2018-06-13T02:07:47.868Z,15.35
2018-06-13T02:10:16.047Z,15.42
2018-06-13T02:12:43.932Z,15.48
2018-06-13T02:15:12.256Z,15.52
2018-06-13T02:17:40.590Z,15.59
2018-06-13T02:20:09.481Z,15.64
2018-06-13T02:22:37.794Z,15.62
2018-06-13T02:25:05.530Z,15.62
2018-06-13T02:27:33.858Z,15.62
2018-06-13T02:30:02.774Z,15.61
2018-06-13T02:32:30.508Z,15.59
2018-06-13T02:34:59.627Z,15.54
2018-06-13T02:37:27.715Z,15.56
2018-06-13T02:39:56.023Z,15.60
2018-06-13T02:42:24.346Z,15.65
2018-06-13T02:44:52.094Z,15.69
2018-06-13T02:47:20.992Z,15.70
2018-06-13T02:49:49.304Z,15.77
2018-06-13T02:52:17.629Z,15.83
2018-06-13T02:54:45.953Z,15.88
2018-06-13T02:57:14.287Z,15.95
2018-06-13T02:59:42.606Z,16.03
2018-06-13T03:02:10.921Z,16.10
2018-06-13T03:04:39.245Z,16.13
2018-06-13T03:07:06.989Z,16.15
2018-06-13T03:09:35.312Z,16.19
2018-06-13T03:12:03.653Z,16.22
2018-06-13T03:14:32.554Z,16.23
2018-06-13T03:17:00.889Z,16.22
2018-06-13T03:19:29.209Z,16.18
2018-06-13T03:21:56.958Z,16.16
2018-06-13T03:24:25.868Z,16.16
2018-06-13T03:26:54.198Z,16.14
2018-06-13T03:29:22.514Z,16.08
2018-06-13T03:31:50.263Z,16.04
2018-06-13T03:34:19.161Z,16.04
2018-06-13T03:36:47.325Z,16.06
2018-06-13T03:39:15.241Z,16.08
2018-06-13T03:41:44.164Z,16.11
2018-06-13T03:44:11.900Z,16.14
2018-06-13T03:46:40.814Z,16.10
2018-06-13T03:49:09.125Z,16.14
2018-06-13T03:51:37.465Z,16.20
2018-06-13T03:54:05.209Z,16.25
2018-06-13T03:56:34.133Z,16.27
2018-06-13T03:59:02.538Z,16.29
2018-06-13T04:01:30.275Z,16.31
2018-06-13T04:03:59.179Z,16.31
2018-06-13T04:06:27.496Z,16.33
2018-06-13T04:08:55.824Z,16.36
2018-06-13T04:11:23.561Z,16.36
2018-06-13T04:13:52.467Z,16.40
2018-06-13T04:16:20.791Z,16.46
2018-06-13T04:18:48.584Z,16.48
2018-06-13T04:21:16.915Z,16.50
2018-06-13T04:23:45.233Z,16.50
2018-06-13T04:26:14.142Z,16.52
2018-06-13T04:28:42.463Z,16.52
2018-06-13T04:31:10.798Z,16.51
2018-06-13T04:33:39.129Z,16.59
2018-06-13T04:36:07.453Z,16.62
2018-06-13T04:38:35.783Z,16.65
2018-06-13T04:41:04.105Z,16.74
2018-06-13T04:43:32.435Z,16.83
2018-06-13T04:46:00.764Z,16.89
2018-06-13T04:48:29.096Z,16.93
2018-06-13T04:50:57.447Z,17.00
2018-06-13T04:53:25.771Z,17.08
2018-06-13T04:55:54.101Z,17.12
2018-06-13T04:58:22.434Z,17.18
2018-06-13T05:00:50.234Z,17.29
2018-06-13T05:03:18.578Z,17.43
2018-06-13T05:05:47.483Z,17.34
2018-06-13T05:08:15.816Z,17.29
2018-06-13T05:10:44.143Z,17.27
2018-06-13T05:13:12.473Z,17.28
2018-06-13T05:15:40.795Z,17.35
2018-06-13T05:18:09.122Z,17.40
2018-06-13T05:20:37.441Z,17.39
2018-06-13T05:23:05.772Z,17.37
2018-06-13T05:25:33.515Z,17.39
2018-06-13T05:28:02.424Z,17.40
2018-06-13T05:30:30.752Z,17.51
2018-06-13T05:32:59.309Z,17.59
2018-06-13T05:35:27.428Z,17.67
2018-06-13T05:37:55.270Z,17.74
2018-06-13T05:40:24.090Z,17.78
2018-06-13T05:42:51.839Z,17.80
2018-06-13T05:45:20.767Z,17.85
2018-06-13T05:47:49.088Z,17.87
2018-06-13T05:50:17.134Z,17.89
2018-06-13T05:52:45.986Z,17.88
2018-06-13T05:55:14.092Z,17.81
2018-06-13T05:57:42.419Z,17.74
2018-06-13T06:00:10.761Z,17.74
2018-06-13T06:02:38.557Z,17.75
2018-06-13T06:05:07.465Z,17.76
2018-06-13T06:07:35.794Z,17.81
2018-06-13T06:10:04.136Z,17.87
2018-06-13T06:12:32.402Z,17.92
2018-06-13T06:15:00.663Z,18.01
2018-06-13T06:17:29.111Z,18.05
2018-06-13T06:19:56.866Z,18.07
2018-06-13T06:22:26.742Z,18.14
2018-06-13T06:24:55.083Z,18.17
2018-06-13T06:27:23.078Z,18.23
2018-06-13T06:29:51.755Z,18.38
2018-06-13T06:32:20.077Z,18.42
2018-06-13T06:34:48.445Z,18.50
2018-06-13T06:37:16.765Z,18.54
2018-06-13T06:39:45.096Z,18.63
2018-06-13T06:42:13.490Z,18.72
2018-06-13T06:44:42.057Z,18.78
2018-06-13T06:47:10.396Z,18.89
2018-06-13T06:49:38.729Z,18.97
2018-06-13T06:52:07.058Z,19.03
2018-06-13T06:54:35.499Z,19.12
2018-06-13T06:57:03.815Z,19.22
2018-06-13T06:59:32.393Z,19.29
2018-06-13T07:02:00.527Z,19.35
2018-06-13T07:04:28.330Z,19.39
2018-06-13T07:06:56.657Z,19.43
2018-06-13T07:09:25.660Z,19.44
2018-06-13T07:11:54.001Z,19.50
2018-06-13T07:14:22.320Z,19.54
2018-06-13T07:16:50.643Z,19.55
2018-06-13T07:19:18.399Z,19.49
2018-06-13T07:21:47.284Z,19.44
2018-06-13T07:24:15.624Z,19.41
2018-06-13T07:26:43.960Z,19.38
2018-06-13T07:29:12.293Z,19.36
2018-06-13T07:31:40.611Z,19.42
2018-06-13T07:34:08.357Z,19.44
2018-06-13T07:36:37.253Z,19.45
2018-06-13T07:39:05.002Z,19.52
2018-06-13T07:41:33.942Z,19.57
2018-06-13T07:44:02.230Z,19.68
2018-06-13T07:46:31.689Z,19.77
2018-06-13T07:49:00.583Z,19.72
2018-06-13T07:51:28.347Z,19.74
2018-06-13T07:53:57.257Z,19.87
2018-06-13T07:56:26.667Z,19.94
2018-06-13T07:58:53.927Z,19.94
2018-06-13T08:01:22.245Z,19.98
2018-06-13T08:03:50.574Z,20.04
2018-06-13T08:06:18.948Z,20.14
2018-06-13T08:08:46.703Z,20.17
2018-06-13T08:11:15.590Z,20.17
2018-06-13T08:13:43.925Z,20.20
2018-06-13T08:16:12.254Z,20.17
2018-06-13T08:18:39.985Z,20.21
2018-06-13T08:21:08.879Z,20.28
2018-06-13T08:23:38.988Z,20.34
2018-06-13T08:26:08.413Z,20.38
2018-06-13T08:28:36.842Z,20.35
2018-06-13T08:31:04.597Z,20.34
2018-06-13T08:33:34.496Z,20.39
2018-06-13T08:36:02.275Z,20.47
2018-06-13T08:38:31.185Z,20.53
2018-06-13T08:40:59.515Z,20.59
2018-06-13T08:43:27.848Z,20.60
2018-06-13T08:45:56.180Z,20.60
2018-06-13T08:48:24.527Z,20.61
2018-06-13T08:50:52.848Z,20.59
2018-06-13T08:53:21.166Z,20.50
2018-06-13T08:55:49.253Z,20.42
2018-06-13T08:58:17.806Z,20.46
2018-06-13T09:00:46.138Z,20.48
2018-06-13T09:03:14.469Z,20.49
2018-06-13T09:05:42.779Z,20.43
2018-06-13T09:08:10.560Z,20.36
2018-06-13T09:10:38.887Z,20.38
2018-06-13T09:13:07.787Z,20.35
2018-06-13T09:15:35.543Z,20.40
2018-06-13T09:18:04.494Z,20.50
2018-06-13T09:20:32.247Z,20.57
2018-06-13T09:23:00.578Z,20.55
2018-06-13T09:25:29.480Z,20.61
2018-06-13T09:27:57.250Z,20.62
2018-06-13T09:30:26.149Z,20.71
2018-06-13T09:32:53.885Z,20.85
2018-06-13T09:35:22.226Z,20.95
2018-06-13T09:37:51.129Z,20.93
2018-06-13T09:40:19.454Z,20.85
2018-06-13T09:42:47.782Z,20.95
2018-06-13T09:45:16.107Z,21.01
2018-06-13T09:47:44.442Z,21.13
2018-06-13T09:50:12.761Z,21.15
2018-06-13T09:52:41.086Z,21.18
2018-06-13T09:55:09.422Z,21.22
2018-06-13T09:57:37.749Z,21.24
2018-06-13T10:00:06.076Z,21.34
2018-06-13T10:02:33.816Z,21.42
2018-06-13T10:05:02.722Z,21.43
2018-06-13T10:07:31.044Z,21.47
2018-06-13T10:09:58.917Z,21.61
2018-06-13T10:12:27.235Z,21.77
2018-06-13T10:14:56.171Z,21.91
2018-06-13T10:17:24.453Z,21.94
2018-06-13T10:19:52.768Z,22.03
2018-06-13T10:22:21.083Z,21.94
2018-06-13T10:24:49.742Z,21.82
2018-06-13T10:27:17.481Z,21.74
2018-06-13T10:29:45.822Z,21.64
2018-06-13T10:32:14.715Z,21.61
2018-06-13T10:34:42.460Z,21.52
2018-06-13T10:37:11.354Z,21.43
2018-06-13T10:39:39.230Z,21.43
2018-06-13T10:42:08.000Z,21.39
2018-06-13T10:44:36.317Z,21.34
2018-06-13T10:47:04.643Z,21.39
2018-06-13T10:49:32.992Z,21.47
2018-06-13T10:52:01.307Z,21.45
2018-06-13T10:54:29.629Z,21.39
2018-06-13T10:56:57.939Z,21.37
2018-06-13T10:59:25.683Z,21.47
2018-06-13T11:01:54.121Z,21.54
2018-06-13T11:04:22.922Z,21.62
2018-06-13T11:06:51.263Z,21.65
2018-06-13T11:09:19.000Z,21.61
2018-06-13T11:11:47.368Z,21.63
2018-06-13T11:14:16.373Z,21.66
2018-06-13T11:16:44.113Z,21.68
2018-06-13T11:19:13.398Z,21.71
2018-06-13T11:21:40.831Z,21.69
2018-06-13T11:24:09.735Z,21.66
2018-06-13T11:26:37.581Z,21.64
2018-06-13T11:29:05.894Z,21.72
2018-06-13T11:31:34.816Z,21.80
2018-06-13T11:34:02.566Z,21.88
2018-06-13T11:36:31.216Z,21.84
2018-06-13T11:38:59.783Z,21.68
2018-06-13T11:41:28.182Z,21.71
2018-06-13T11:43:56.533Z,21.77
2018-06-13T11:46:24.859Z,21.85
2018-06-13T11:48:52.613Z,21.99
2018-06-13T11:51:20.942Z,22.17
2018-06-13T11:53:49.849Z,22.20
2018-06-13T11:56:17.628Z,22.18
2018-06-13T11:58:45.961Z,22.10
2018-06-13T12:01:14.877Z,22.04
2018-06-13T12:03:43.204Z,21.84
2018-06-13T12:06:10.998Z,21.79
2018-06-13T12:08:39.849Z,21.78
2018-06-13T12:11:07.602Z,21.80
2018-06-13T12:13:36.574Z,21.81
2018-06-13T12:16:04.895Z,21.73
2018-06-13T12:18:33.225Z,21.63
2018-06-13T12:21:01.541Z,21.51
2018-06-13T12:23:29.894Z,21.49
2018-06-13T12:25:58.200Z,21.55
2018-06-13T12:28:25.938Z,21.58
2018-06-13T12:30:54.838Z,21.50
2018-06-13T12:33:23.165Z,21.42
2018-06-13T12:35:51.732Z,21.34
2018-06-13T12:38:19.846Z,21.32
2018-06-13T12:40:48.172Z,21.32
2018-06-13T12:43:16.578Z,21.36
2018-06-13T12:45:44.907Z,21.45
2018-06-13T12:48:13.225Z,21.49
2018-06-13T12:50:41.551Z,21.51
2018-06-13T12:53:09.774Z,21.53
2018-06-13T12:55:37.627Z,21.52
2018-06-13T12:58:06.532Z,21.52
2018-06-13T13:00:34.913Z,21.53
2018-06-13T13:03:03.810Z,21.54
2018-06-13T13:05:32.364Z,21.55
2018-06-13T13:08:00.685Z,21.61
2018-06-13T13:10:29.014Z,21.63
2018-06-13T13:12:56.764Z,21.63
2018-06-13T13:15:26.480Z,21.68
2018-06-13T13:17:54.579Z,21.76
2018-06-13T13:20:23.956Z,21.77
2018-06-13T13:22:52.252Z,21.82
2018-06-13T13:25:20.575Z,21.88
2018-06-13T13:27:48.913Z,21.90
2018-06-13T13:30:16.830Z,21.90
2018-06-13T13:32:45.571Z,21.92
2018-06-13T13:35:13.947Z,21.95
2018-06-13T13:37:42.258Z,21.99
2018-06-13T13:40:10.597Z,21.98
2018-06-13T13:42:38.968Z,21.99
2018-06-13T13:45:07.495Z,21.99
2018-06-13T13:47:35.634Z,21.94
2018-06-13T13:50:03.965Z,21.86
2018-06-13T13:52:32.290Z,21.84
2018-06-13T13:55:00.834Z,21.80
2018-06-13T13:57:28.942Z,21.68
2018-06-13T14:00:02.732Z,21.58
2018-06-13T14:02:36.487Z,21.50
2018-06-13T14:05:06.245Z,21.42
2018-06-13T14:07:33.997Z,21.31
2018-06-13T14:10:02.913Z,21.20
2018-06-13T14:12:31.222Z,21.04
2018-06-13T14:14:59.566Z,20.87
2018-06-13T14:17:27.429Z,20.69
2018-06-13T14:19:56.347Z,20.58
2018-06-13T14:22:24.773Z,20.52
2018-06-13T14:24:53.915Z,20.40
2018-06-13T14:27:22.266Z,20.34
2018-06-13T14:29:50.592Z,20.22
2018-06-13T14:32:18.932Z,20.07
2018-06-13T14:34:47.253Z,19.97
2018-06-13T14:37:15.681Z,19.87
2018-06-13T14:39:43.937Z,19.81
2018-06-13T14:42:12.333Z,19.65
2018-06-13T14:44:40.652Z,19.67
2018-06-13T14:47:08.979Z,19.53
2018-06-13T14:49:37.525Z,19.37
2018-06-13T14:52:05.037Z,19.29
2018-06-13T14:54:33.967Z,19.11
2018-06-13T14:57:01.706Z,19.00
2018-06-13T14:59:30.609Z,18.89
2018-06-13T15:01:58.966Z,18.76
2018-06-13T15:04:27.279Z,18.88
2018-06-13T15:06:55.045Z,19.14
2018-06-13T15:09:23.375Z,19.43
2018-06-13T15:11:52.273Z,19.65
2018-06-13T15:14:20.602Z,19.82
2018-06-13T15:16:48.918Z,19.95
2018-06-13T15:19:16.719Z,20.09
2018-06-13T15:21:45.623Z,20.19
2018-06-13T15:24:13.494Z,20.29
2018-06-13T15:26:42.270Z,20.34
2018-06-13T15:29:10.606Z,20.39
2018-06-13T15:31:39.376Z,20.44
2018-06-13T15:34:08.281Z,20.42
2018-06-13T15:36:36.614Z,20.48
2018-06-13T15:39:05.178Z,20.48
2018-06-13T15:41:33.294Z,20.50
2018-06-13T15:44:01.042Z,20.47
2018-06-13T15:46:29.370Z,20.48
2018-06-13T15:48:58.286Z,20.48
2018-06-13T15:51:26.634Z,20.54
2018-06-13T15:53:58.478Z,20.58
2018-06-13T15:56:27.689Z,20.55
2018-06-13T15:58:56.162Z,20.51
2018-06-13T16:01:24.721Z,20.51
2018-06-13T16:03:52.835Z,20.54
2018-06-13T16:06:21.192Z,20.54
2018-06-13T16:08:49.523Z,20.43
2018-06-13T16:11:17.849Z,20.20
2018-06-13T16:13:46.182Z,20.09
2018-06-13T16:16:14.527Z,20.00
2018-06-13T16:18:42.875Z,19.93
2018-06-13T16:21:10.703Z,19.93
2018-06-13T16:23:39.642Z,19.87
2018-06-13T16:26:07.336Z,19.88
2018-06-13T16:28:36.256Z,19.90
2018-06-13T16:31:04.566Z,19.93
2018-06-13T16:33:32.891Z,19.96
2018-06-13T16:36:01.240Z,19.86
2018-06-13T16:38:29.572Z,19.68
2018-06-13T16:40:58.175Z,19.61
2018-06-13T16:43:26.292Z,19.61
2018-06-13T16:45:54.624Z,19.59
2018-06-13T16:48:22.973Z,19.70
2018-06-13T16:50:51.295Z,19.85
2018-06-13T16:53:19.608Z,19.98
2018-06-13T16:55:47.352Z,20.05
2018-06-13T16:58:16.263Z,20.10
2018-06-13T17:00:44.591Z,20.12
2018-06-13T17:03:12.924Z,20.16
2018-06-13T17:05:41.257Z,20.09
2018-06-13T17:08:09.585Z,19.99
2018-06-13T17:10:37.918Z,19.96
2018-06-13T17:13:06.256Z,20.00
2018-06-13T17:15:34.087Z,19.98
2018-06-13T17:18:02.329Z,19.94
2018-06-13T17:20:31.241Z,20.02
2018-06-13T17:22:59.049Z,20.03
2018-06-13T17:25:27.966Z,20.11
2018-06-13T17:27:55.714Z,20.18
2018-06-13T17:30:24.622Z,20.13
2018-06-13T17:32:52.961Z,20.11
2018-06-13T17:35:21.286Z,19.98
2018-06-13T17:37:49.037Z,19.63
2018-06-13T17:40:17.372Z,19.34
2018-06-13T17:42:46.271Z,19.08
2018-06-13T17:45:14.590Z,18.91
2018-06-13T17:47:42.927Z,18.75
2018-06-13T17:50:10.841Z,18.51
2018-06-13T17:52:39.772Z,18.38
2018-06-13T17:58:01.510Z,18.19
2018-06-13T18:00:29.850Z,18.12
2018-06-13T18:03:11.991Z,18.17
2018-06-13T18:05:40.443Z,18.31
2018-06-13T18:08:08.834Z,18.41
2018-06-13T18:10:37.204Z,18.35
2018-06-13T18:13:05.539Z,18.32
2018-06-13T18:15:33.869Z,18.23
2018-06-13T18:18:02.192Z,18.06
2018-06-13T18:20:30.936Z,17.87
2018-06-13T18:22:59.703Z,17.70
2018-06-13T18:25:27.814Z,17.66
2018-06-13T18:27:56.144Z,17.63
2018-06-13T18:30:24.478Z,17.62
2018-06-13T18:32:52.576Z,17.52
2018-06-13T18:35:21.123Z,17.31
2018-06-13T18:37:49.451Z,17.28
2018-06-13T18:40:17.796Z,17.27
2018-06-13T18:42:45.554Z,17.20
2018-06-13T18:45:14.495Z,17.12
2018-06-13T18:47:42.833Z,17.01
2018-06-13T18:50:10.749Z,17.00
2018-06-13T18:52:39.775Z,17.00
2018-06-13T18:55:08.602Z,17.01
2018-06-13T18:57:36.970Z,16.97
2018-06-13T19:00:06.047Z,16.87
2018-06-13T19:02:34.385Z,16.82
2018-06-13T19:05:02.726Z,16.69
2018-06-13T19:07:31.071Z,16.62
2018-06-13T19:09:59.637Z,16.42
2018-06-13T19:12:27.167Z,16.24
2018-06-13T19:14:56.114Z,16.13
2018-06-13T19:17:24.454Z,16.03
2018-06-13T19:19:52.782Z,16.02
2018-06-13T19:22:21.141Z,15.99
2018-06-13T19:24:49.599Z,15.95
2018-06-13T19:27:17.922Z,15.94
2018-06-13T19:29:46.248Z,15.93
2018-06-13T19:32:14.614Z,15.93
2018-06-13T19:34:42.920Z,15.95
2018-06-13T19:37:11.562Z,15.97
2018-06-13T19:39:40.927Z,15.99
2018-06-13T19:42:09.258Z,16.03
2018-06-13T19:44:37.610Z,16.03
2018-06-13T19:47:05.965Z,16.02
2018-06-13T19:49:34.518Z,16.03
2018-06-13T19:52:03.432Z,16.04
2018-06-13T19:54:37.765Z,16.06
2018-06-13T19:57:06.112Z,16.09
2018-06-13T19:59:34.455Z,16.13
2018-06-13T20:02:02.211Z,16.16
2018-06-13T20:04:31.118Z,16.19
2018-06-13T20:06:59.479Z,16.22
2018-06-13T20:09:28.080Z,16.14
2018-06-13T20:11:55.833Z,16.12
2018-06-13T20:14:30.446Z,16.09
2018-06-13T20:16:59.757Z,16.05
2018-06-13T20:19:29.983Z,16.07
2018-06-13T20:21:58.415Z,16.06
2018-06-13T20:24:27.031Z,16.08
2018-06-13T20:27:00.890Z,16.08
2018-06-13T20:29:32.477Z,16.06
2018-06-13T20:32:00.848Z,16.03
2018-06-13T20:34:29.771Z,16.01
2018-06-13T20:36:58.200Z,16.00
2018-06-13T20:39:26.540Z,16.00
2018-06-13T20:41:54.897Z,16.01
2018-06-13T20:44:23.239Z,16.03
2018-06-13T20:46:52.846Z,16.05
2018-06-13T20:49:20.343Z,16.09
2018-06-13T20:51:48.150Z,16.10
2018-06-13T20:54:17.018Z,16.12
2018-06-13T20:56:45.347Z,16.11
2018-06-13T20:59:13.109Z,16.17
2018-06-13T21:01:42.258Z,16.19
2018-06-13T21:04:10.005Z,16.15
2018-06-13T21:06:38.903Z,16.21
2018-06-13T21:09:07.241Z,16.25
2018-06-13T21:11:35.790Z,16.25
2018-06-13T21:14:03.886Z,16.26
2018-06-13T21:16:33.020Z,16.28
2018-06-13T21:19:00.770Z,16.21
2018-06-13T21:21:29.925Z,16.14
2018-06-13T21:23:58.306Z,16.12
2018-06-13T21:26:25.809Z,16.12
2018-06-13T21:28:54.765Z,16.09
2018-06-13T21:31:23.134Z,16.07
2018-06-13T21:33:51.509Z,16.06
2018-06-13T21:36:19.244Z,16.07
2018-06-13T21:38:48.173Z,16.07
2018-06-13T21:41:15.937Z,16.10
2018-06-13T21:43:44.866Z,16.09
2018-06-13T21:46:13.205Z,16.09
2018-06-13T21:48:41.562Z,16.07
2018-06-13T21:51:09.897Z,16.05
2018-06-13T21:53:38.284Z,16.09
2018-06-13T21:56:06.628Z,16.06
2018-06-13T21:58:34.780Z,16.05
2018-06-13T22:01:02.792Z,16.08
2018-06-13T22:03:31.051Z,16.06
2018-06-13T22:05:59.965Z,16.05
2018-06-13T22:08:28.318Z,16.01
2018-06-13T22:10:56.647Z,16.02
2018-06-13T22:13:25.033Z,16.01
2018-06-13T22:15:52.738Z,15.99
2018-06-13T22:18:21.648Z,15.97
2018-06-13T22:20:49.971Z,15.99
2018-06-13T22:23:18.304Z,16.00
2018-06-13T22:25:46.061Z,15.98
2018-06-13T22:28:14.979Z,15.96
2018-06-13T22:30:42.813Z,15.89
2018-06-13T22:33:11.728Z,15.86
2018-06-13T22:35:39.480Z,15.86
2018-06-13T22:38:08.385Z,15.86
2018-06-13T22:40:36.156Z,15.87
2018-06-13T22:43:05.091Z,15.87
2018-06-13T22:45:33.420Z,15.87
2018-06-13T22:48:01.750Z,15.88
2018-06-13T22:50:29.807Z,15.88
2018-06-13T22:52:58.417Z,15.93
2018-06-13T22:55:26.745Z,15.97
2018-06-13T22:57:56.227Z,16.00
2018-06-13T23:00:23.787Z,16.02
2018-06-13T23:02:51.536Z,16.05
2018-06-13T23:05:20.448Z,16.11
2018-06-13T23:07:49.238Z,16.10
2018-06-13T23:10:17.302Z,16.11
2018-06-13T23:12:46.213Z,16.10
2018-06-13T23:15:13.974Z,16.09
2018-06-13T23:17:41.741Z,16.09
2018-06-13T23:20:10.660Z,16.06
2018-06-13T23:22:38.991Z,16.02
2018-06-13T23:25:06.741Z,16.03
2018-06-13T23:27:35.651Z,15.99
2018-06-13T23:30:03.986Z,16.00
2018-06-13T23:32:31.806Z,16.06
2018-06-13T23:35:00.705Z,16.08
2018-06-13T23:37:28.448Z,16.08
2018-06-13T23:39:57.359Z,16.09
2018-06-13T23:42:25.100Z,16.06
2018-06-13T23:44:54.005Z,15.99
2018-06-13T23:47:22.328Z,15.99
2018-06-13T23:49:50.077Z,16.00
2018-06-13T23:52:19.002Z,15.97
2018-06-13T23:54:47.339Z,15.94
2018-06-13T23:57:15.687Z,15.89
2018-06-13T23:59:44.002Z,15.90
